sensor_id;sensor_type;location;lat;lon;timestamp;P1;durP1;ratioP1;P2;durP2;ratioP2
2320;SDS011;15376;48.540;9.268;2022-09-02T00:00:13;6.47;;;5.87;;
2320;SDS011;15376;48.540;9.268;2022-09-02T00:02:38;6.47;;;5.87;;
2320;SDS011;15376;48.540;9.268;2022-09-02T00:05:04;6.70;;;6.20;;
2320;SDS011;15376;48.540;9.268;2022-09-02T00:07:30;6.67;;;6.07;;
2320;SDS011;15376;48.540;9.268;2022-09-02T00:09:56;6.80;;;6.20;;
2320;SDS011;15376;48.540;9.268;2022-09-02T00:12:22;7.07;;;6.30;;
2320;SDS011;15376;48.540;9.268;2022-09-02T00:14:47;6.27;;;5.67;;
2320;SDS011;15376;48.540;9.268;2022-09-02T00:17:12;6.20;;;5.80;;
2320;SDS011;15376;48.540;9.268;2022-09-02T00:19:38;9.37;;;5.70;;
2320;SDS011;15376;48.540;9.268;2022-09-02T00:22:03;6.50;;;5.90;;
2320;SDS011;15376;48.540;9.268;2022-09-02T00:24:28;6.67;;;6.17;;
2320;SDS011;15376;48.540;9.268;2022-09-02T00:26:54;5.93;;;5.53;;
2320;SDS011;15376;48.540;9.268;2022-09-02T00:29:19;6.10;;;5.70;;
2320;SDS011;15376;48.540;9.268;2022-09-02T00:31:45;6.50;;;6.00;;
2320;SDS011;15376;48.540;9.268;2022-09-02T00:34:12;7.57;;;6.87;;
2320;SDS011;15376;48.540;9.268;2022-09-02T00:36:38;7.50;;;6.90;;
2320;SDS011;15376;48.540;9.268;2022-09-02T00:39:03;8.00;;;6.77;;
2320;SDS011;15376;48.540;9.268;2022-09-02T00:41:31;8.93;;;6.90;;
2320;SDS011;15376;48.540;9.268;2022-09-02T00:44:07;7.70;;;7.00;;
2320;SDS011;15376;48.540;9.268;2022-09-02T00:46:36;7.73;;;7.03;;
2320;SDS011;15376;48.540;9.268;2022-09-02T00:51:37;7.30;;;6.57;;
2320;SDS011;15376;48.540;9.268;2022-09-02T00:54:07;7.30;;;6.50;;
2320;SDS011;15376;48.540;9.268;2022-09-02T00:56:34;8.07;;;7.37;;
2320;SDS011;15376;48.540;9.268;2022-09-02T00:59:02;11.23;;;7.90;;
2320;SDS011;15376;48.540;9.268;2022-09-02T01:01:28;10.17;;;8.03;;
2320;SDS011;15376;48.540;9.268;2022-09-02T01:03:53;7.60;;;6.90;;
2320;SDS011;15376;48.540;9.268;2022-09-02T01:06:21;7.33;;;6.70;;
2320;SDS011;15376;48.540;9.268;2022-09-02T01:08:51;7.80;;;7.07;;
2320;SDS011;15376;48.540;9.268;2022-09-02T01:11:22;9.20;;;8.30;;
2320;SDS011;15376;48.540;9.268;2022-09-02T01:13:50;9.23;;;8.13;;
2320;SDS011;15376;48.540;9.268;2022-09-02T01:16:23;8.50;;;7.80;;
2320;SDS011;15376;48.540;9.268;2022-09-02T01:18:55;8.93;;;8.03;;
2320;SDS011;15376;48.540;9.268;2022-09-02T01:21:24;9.63;;;8.63;;
2320;SDS011;15376;48.540;9.268;2022-09-02T01:23:50;8.90;;;8.10;;
2320;SDS011;15376;48.540;9.268;2022-09-02T01:26:16;8.87;;;8.17;;
2320;SDS011;15376;48.540;9.268;2022-09-02T01:28:42;8.20;;;7.60;;
2320;SDS011;15376;48.540;9.268;2022-09-02T01:31:08;9.50;;;8.57;;
2320;SDS011;15376;48.540;9.268;2022-09-02T01:33:33;9.70;;;8.73;;
2320;SDS011;15376;48.540;9.268;2022-09-02T01:35:59;10.03;;;9.13;;
2320;SDS011;15376;48.540;9.268;2022-09-02T01:38:26;10.30;;;8.90;;
2320;SDS011;15376;48.540;9.268;2022-09-02T01:40:52;9.53;;;7.80;;
2320;SDS011;15376;48.540;9.268;2022-09-02T01:43:20;8.10;;;7.40;;
2320;SDS011;15376;48.540;9.268;2022-09-02T01:45:47;10.53;;;8.70;;
2320;SDS011;15376;48.540;9.268;2022-09-02T01:48:15;7.53;;;6.93;;
2320;SDS011;15376;48.540;9.268;2022-09-02T01:50:43;8.80;;;8.10;;
2320;SDS011;15376;48.540;9.268;2022-09-02T01:53:11;8.57;;;7.70;;
2320;SDS011;15376;48.540;9.268;2022-09-02T01:55:37;9.10;;;8.30;;
2320;SDS011;15376;48.540;9.268;2022-09-02T01:58:02;8.90;;;8.10;;
2320;SDS011;15376;48.540;9.268;2022-09-02T02:00:28;8.80;;;7.90;;
2320;SDS011;15376;48.540;9.268;2022-09-02T02:02:54;8.30;;;7.53;;
2320;SDS011;15376;48.540;9.268;2022-09-02T02:05:20;9.17;;;8.30;;
2320;SDS011;15376;48.540;9.268;2022-09-02T02:07:46;8.93;;;7.90;;
2320;SDS011;15376;48.540;9.268;2022-09-02T02:10:12;7.93;;;7.13;;
2320;SDS011;15376;48.540;9.268;2022-09-02T02:12:38;9.90;;;8.93;;
2320;SDS011;15376;48.540;9.268;2022-09-02T02:15:05;8.97;;;8.17;;
2320;SDS011;15376;48.540;9.268;2022-09-02T02:17:32;7.77;;;7.13;;
2320;SDS011;15376;48.540;9.268;2022-09-02T02:19:58;9.70;;;8.80;;
2320;SDS011;15376;48.540;9.268;2022-09-02T02:22:24;9.00;;;8.17;;
2320;SDS011;15376;48.540;9.268;2022-09-02T02:24:51;8.87;;;8.10;;
2320;SDS011;15376;48.540;9.268;2022-09-02T02:27:17;9.83;;;9.00;;
2320;SDS011;15376;48.540;9.268;2022-09-02T02:29:42;8.90;;;8.00;;
2320;SDS011;15376;48.540;9.268;2022-09-02T02:32:08;8.40;;;7.70;;
2320;SDS011;15376;48.540;9.268;2022-09-02T02:34:34;8.57;;;7.80;;
2320;SDS011;15376;48.540;9.268;2022-09-02T02:37:00;8.60;;;7.90;;
2320;SDS011;15376;48.540;9.268;2022-09-02T02:39:25;7.60;;;7.00;;
2320;SDS011;15376;48.540;9.268;2022-09-02T02:41:51;8.33;;;7.73;;
2320;SDS011;15376;48.540;9.268;2022-09-02T02:44:16;8.23;;;7.63;;
2320;SDS011;15376;48.540;9.268;2022-09-02T02:46:42;8.40;;;7.73;;
2320;SDS011;15376;48.540;9.268;2022-09-02T02:49:07;7.80;;;7.27;;
2320;SDS011;15376;48.540;9.268;2022-09-02T02:51:33;8.13;;;7.33;;
2320;SDS011;15376;48.540;9.268;2022-09-02T02:53:59;7.13;;;6.53;;
2320;SDS011;15376;48.540;9.268;2022-09-02T02:56:25;7.53;;;6.93;;
2320;SDS011;15376;48.540;9.268;2022-09-02T02:58:52;6.93;;;6.37;;
2320;SDS011;15376;48.540;9.268;2022-09-02T03:01:18;8.03;;;7.43;;
2320;SDS011;15376;48.540;9.268;2022-09-02T03:03:43;7.57;;;6.87;;
2320;SDS011;15376;48.540;9.268;2022-09-02T03:06:08;8.87;;;8.07;;
2320;SDS011;15376;48.540;9.268;2022-09-02T03:08:34;8.40;;;7.63;;
2320;SDS011;15376;48.540;9.268;2022-09-02T03:11:01;8.30;;;7.50;;
2320;SDS011;15376;48.540;9.268;2022-09-02T03:13:30;8.23;;;7.53;;
2320;SDS011;15376;48.540;9.268;2022-09-02T03:15:56;7.50;;;6.90;;
2320;SDS011;15376;48.540;9.268;2022-09-02T03:18:21;8.70;;;7.80;;
2320;SDS011;15376;48.540;9.268;2022-09-02T03:20:46;8.50;;;7.90;;
2320;SDS011;15376;48.540;9.268;2022-09-02T03:23:12;9.40;;;8.60;;
2320;SDS011;15376;48.540;9.268;2022-09-02T03:25:40;7.67;;;6.97;;
2320;SDS011;15376;48.540;9.268;2022-09-02T03:28:10;9.63;;;8.07;;
2320;SDS011;15376;48.540;9.268;2022-09-02T03:30:38;7.73;;;7.13;;
2320;SDS011;15376;48.540;9.268;2022-09-02T03:33:05;8.37;;;7.67;;
2320;SDS011;15376;48.540;9.268;2022-09-02T03:35:30;7.63;;;6.93;;
2320;SDS011;15376;48.540;9.268;2022-09-02T03:37:57;7.00;;;6.40;;
2320;SDS011;15376;48.540;9.268;2022-09-02T03:40:24;7.10;;;6.50;;
2320;SDS011;15376;48.540;9.268;2022-09-02T03:42:51;7.47;;;6.77;;
2320;SDS011;15376;48.540;9.268;2022-09-02T03:45:18;7.97;;;6.70;;
2320;SDS011;15376;48.540;9.268;2022-09-02T03:47:44;8.10;;;7.40;;
2320;SDS011;15376;48.540;9.268;2022-09-02T03:50:29;7.67;;;6.47;;
2320;SDS011;15376;48.540;9.268;2022-09-02T03:52:57;8.10;;;7.50;;
2320;SDS011;15376;48.540;9.268;2022-09-02T03:55:23;8.63;;;7.93;;
2320;SDS011;15376;48.540;9.268;2022-09-02T03:57:49;7.63;;;7.03;;
2320;SDS011;15376;48.540;9.268;2022-09-02T04:00:16;7.60;;;6.90;;
2320;SDS011;15376;48.540;9.268;2022-09-02T04:02:44;8.17;;;6.73;;
2320;SDS011;15376;48.540;9.268;2022-09-02T04:05:09;7.97;;;7.17;;
2320;SDS011;15376;48.540;9.268;2022-09-02T04:07:37;7.87;;;7.27;;
2320;SDS011;15376;48.540;9.268;2022-09-02T04:10:04;6.87;;;6.33;;
2320;SDS011;15376;48.540;9.268;2022-09-02T04:12:32;8.00;;;6.60;;
2320;SDS011;15376;48.540;9.268;2022-09-02T04:14:58;6.20;;;5.63;;
2320;SDS011;15376;48.540;9.268;2022-09-02T04:20:48;7.10;;;6.50;;
2320;SDS011;15376;48.540;9.268;2022-09-02T04:23:13;7.60;;;6.27;;
2320;SDS011;15376;48.540;9.268;2022-09-02T04:25:39;7.37;;;5.87;;
2320;SDS011;15376;48.540;9.268;2022-09-02T04:28:07;8.23;;;5.90;;
2320;SDS011;15376;48.540;9.268;2022-09-02T04:30:33;6.03;;;5.53;;
2320;SDS011;15376;48.540;9.268;2022-09-02T04:32:58;5.67;;;5.20;;
2320;SDS011;15376;48.540;9.268;2022-09-02T04:35:23;6.87;;;6.27;;
2320;SDS011;15376;48.540;9.268;2022-09-02T04:37:49;6.53;;;6.00;;
2320;SDS011;15376;48.540;9.268;2022-09-02T04:40:14;7.57;;;6.50;;
2320;SDS011;15376;48.540;9.268;2022-09-02T04:42:40;7.27;;;6.60;;
2320;SDS011;15376;48.540;9.268;2022-09-02T04:45:05;8.53;;;7.67;;
2320;SDS011;15376;48.540;9.268;2022-09-02T04:47:32;10.10;;;6.40;;
2320;SDS011;15376;48.540;9.268;2022-09-02T04:49:58;8.60;;;7.80;;
2320;SDS011;15376;48.540;9.268;2022-09-02T04:52:23;8.10;;;7.40;;
2320;SDS011;15376;48.540;9.268;2022-09-02T04:54:49;7.27;;;6.60;;
2320;SDS011;15376;48.540;9.268;2022-09-02T04:57:15;8.03;;;7.27;;
2320;SDS011;15376;48.540;9.268;2022-09-02T04:59:41;6.93;;;6.33;;
2320;SDS011;15376;48.540;9.268;2022-09-02T05:02:06;6.70;;;6.20;;
2320;SDS011;15376;48.540;9.268;2022-09-02T05:04:32;7.40;;;6.80;;
2320;SDS011;15376;48.540;9.268;2022-09-02T05:06:58;7.53;;;6.30;;
2320;SDS011;15376;48.540;9.268;2022-09-02T05:09:26;7.77;;;7.07;;
2320;SDS011;15376;48.540;9.268;2022-09-02T05:11:52;8.80;;;7.30;;
2320;SDS011;15376;48.540;9.268;2022-09-02T05:14:21;8.37;;;7.67;;
2320;SDS011;15376;48.540;9.268;2022-09-02T05:16:48;6.87;;;6.30;;
2320;SDS011;15376;48.540;9.268;2022-09-02T05:19:18;8.07;;;7.00;;
2320;SDS011;15376;48.540;9.268;2022-09-02T05:21:46;8.00;;;7.20;;
2320;SDS011;15376;48.540;9.268;2022-09-02T05:24:11;6.00;;;5.23;;
2320;SDS011;15376;48.540;9.268;2022-09-02T05:26:37;6.93;;;6.17;;
2320;SDS011;15376;48.540;9.268;2022-09-02T05:29:09;6.47;;;5.90;;
2320;SDS011;15376;48.540;9.268;2022-09-02T05:31:36;7.17;;;6.57;;
2320;SDS011;15376;48.540;9.268;2022-09-02T05:34:02;6.67;;;5.97;;
2320;SDS011;15376;48.540;9.268;2022-09-02T05:36:28;6.10;;;5.70;;
2320;SDS011;15376;48.540;9.268;2022-09-02T05:38:55;6.63;;;6.00;;
2320;SDS011;15376;48.540;9.268;2022-09-02T05:41:21;6.87;;;6.37;;
2320;SDS011;15376;48.540;9.268;2022-09-02T05:43:48;10.23;;;9.23;;
2320;SDS011;15376;48.540;9.268;2022-09-02T05:46:17;13.87;;;10.10;;
2320;SDS011;15376;48.540;9.268;2022-09-02T05:48:44;7.23;;;6.63;;
2320;SDS011;15376;48.540;9.268;2022-09-02T05:51:29;7.50;;;5.57;;
2320;SDS011;15376;48.540;9.268;2022-09-02T05:53:56;15.10;;;12.20;;
2320;SDS011;15376;48.540;9.268;2022-09-02T05:56:23;11.30;;;9.50;;
2320;SDS011;15376;48.540;9.268;2022-09-02T05:58:49;6.77;;;6.27;;
2320;SDS011;15376;48.540;9.268;2022-09-02T06:01:16;9.20;;;6.37;;
2320;SDS011;15376;48.540;9.268;2022-09-02T06:03:43;6.23;;;5.60;;
2320;SDS011;15376;48.540;9.268;2022-09-02T06:06:09;6.30;;;5.80;;
2320;SDS011;15376;48.540;9.268;2022-09-02T06:08:34;6.13;;;5.63;;
2320;SDS011;15376;48.540;9.268;2022-09-02T06:11:01;5.23;;;4.83;;
2320;SDS011;15376;48.540;9.268;2022-09-02T06:13:35;8.00;;;4.93;;
2320;SDS011;15376;48.540;9.268;2022-09-02T06:16:02;6.17;;;5.57;;
2320;SDS011;15376;48.540;9.268;2022-09-02T06:18:28;5.33;;;4.93;;
2320;SDS011;15376;48.540;9.268;2022-09-02T06:20:53;5.30;;;4.90;;
2320;SDS011;15376;48.540;9.268;2022-09-02T06:23:19;5.83;;;5.23;;
2320;SDS011;15376;48.540;9.268;2022-09-02T06:25:46;4.97;;;4.57;;
2320;SDS011;15376;48.540;9.268;2022-09-02T06:28:13;6.37;;;5.80;;
2320;SDS011;15376;48.540;9.268;2022-09-02T06:30:40;6.47;;;4.90;;
2320;SDS011;15376;48.540;9.268;2022-09-02T06:33:08;9.37;;;4.50;;
2320;SDS011;15376;48.540;9.268;2022-09-02T06:35:38;4.83;;;4.37;;
2320;SDS011;15376;48.540;9.268;2022-09-02T06:38:06;5.67;;;4.57;;
2320;SDS011;15376;48.540;9.268;2022-09-02T06:40:33;5.53;;;4.70;;
2320;SDS011;15376;48.540;9.268;2022-09-02T06:42:58;6.17;;;5.67;;
2320;SDS011;15376;48.540;9.268;2022-09-02T06:45:24;5.30;;;4.90;;
2320;SDS011;15376;48.540;9.268;2022-09-02T06:47:50;7.40;;;5.30;;
2320;SDS011;15376;48.540;9.268;2022-09-02T06:50:17;5.77;;;4.97;;
2320;SDS011;15376;48.540;9.268;2022-09-02T06:52:43;4.57;;;4.17;;
2320;SDS011;15376;48.540;9.268;2022-09-02T06:55:08;5.23;;;4.50;;
2320;SDS011;15376;48.540;9.268;2022-09-02T06:57:35;6.23;;;5.10;;
2320;SDS011;15376;48.540;9.268;2022-09-02T07:00:04;6.70;;;4.60;;
2320;SDS011;15376;48.540;9.268;2022-09-02T07:02:32;7.93;;;5.10;;
2320;SDS011;15376;48.540;9.268;2022-09-02T07:04:57;5.20;;;4.80;;
2320;SDS011;15376;48.540;9.268;2022-09-02T07:07:35;4.13;;;3.73;;
2320;SDS011;15376;48.540;9.268;2022-09-02T07:10:04;6.20;;;4.63;;
2320;SDS011;15376;48.540;9.268;2022-09-02T07:12:32;5.07;;;4.40;;
2320;SDS011;15376;48.540;9.268;2022-09-02T07:14:58;5.10;;;4.60;;
2320;SDS011;15376;48.540;9.268;2022-09-02T07:17:24;5.67;;;4.30;;
2320;SDS011;15376;48.540;9.268;2022-09-02T07:19:50;3.93;;;3.63;;
2320;SDS011;15376;48.540;9.268;2022-09-02T07:22:16;4.50;;;4.10;;
2320;SDS011;15376;48.540;9.268;2022-09-02T07:24:42;4.67;;;4.30;;
2320;SDS011;15376;48.540;9.268;2022-09-02T07:27:07;4.63;;;4.20;;
2320;SDS011;15376;48.540;9.268;2022-09-02T07:29:33;5.00;;;4.60;;
2320;SDS011;15376;48.540;9.268;2022-09-02T07:31:59;4.70;;;4.30;;
2320;SDS011;15376;48.540;9.268;2022-09-02T07:34:24;5.17;;;4.10;;
2320;SDS011;15376;48.540;9.268;2022-09-02T07:36:50;5.37;;;4.37;;
2320;SDS011;15376;48.540;9.268;2022-09-02T07:39:17;4.70;;;4.30;;
2320;SDS011;15376;48.540;9.268;2022-09-02T07:41:44;4.90;;;4.50;;
2320;SDS011;15376;48.540;9.268;2022-09-02T07:44:12;4.33;;;3.90;;
2320;SDS011;15376;48.540;9.268;2022-09-02T07:46:38;4.37;;;4.07;;
2320;SDS011;15376;48.540;9.268;2022-09-02T07:49:06;4.13;;;3.83;;
2320;SDS011;15376;48.540;9.268;2022-09-02T07:51:33;4.63;;;4.23;;
2320;SDS011;15376;48.540;9.268;2022-09-02T07:54:00;4.47;;;4.00;;
2320;SDS011;15376;48.540;9.268;2022-09-02T07:56:27;6.40;;;3.73;;
2320;SDS011;15376;48.540;9.268;2022-09-02T07:58:53;4.10;;;3.80;;
2320;SDS011;15376;48.540;9.268;2022-09-02T08:01:19;4.03;;;3.73;;
2320;SDS011;15376;48.540;9.268;2022-09-02T08:03:45;5.33;;;4.93;;
2320;SDS011;15376;48.540;9.268;2022-09-02T08:06:11;3.40;;;3.20;;
2320;SDS011;15376;48.540;9.268;2022-09-02T08:08:36;3.90;;;3.50;;
2320;SDS011;15376;48.540;9.268;2022-09-02T08:11:02;4.03;;;3.73;;
2320;SDS011;15376;48.540;9.268;2022-09-02T08:13:28;4.07;;;3.67;;
2320;SDS011;15376;48.540;9.268;2022-09-02T08:15:54;3.67;;;3.37;;
2320;SDS011;15376;48.540;9.268;2022-09-02T08:18:19;3.87;;;3.47;;
2320;SDS011;15376;48.540;9.268;2022-09-02T08:20:45;3.93;;;3.13;;
2320;SDS011;15376;48.540;9.268;2022-09-02T08:23:11;2.77;;;2.57;;
2320;SDS011;15376;48.540;9.268;2022-09-02T08:25:37;5.73;;;2.97;;
2320;SDS011;15376;48.540;9.268;2022-09-02T08:28:02;3.00;;;2.40;;
2320;SDS011;15376;48.540;9.268;2022-09-02T08:30:28;2.37;;;2.10;;
2320;SDS011;15376;48.540;9.268;2022-09-02T08:32:54;2.30;;;2.10;;
2320;SDS011;15376;48.540;9.268;2022-09-02T08:35:20;2.83;;;2.10;;
2320;SDS011;15376;48.540;9.268;2022-09-02T08:37:45;2.50;;;2.30;;
2320;SDS011;15376;48.540;9.268;2022-09-02T08:40:21;2.30;;;2.10;;
2320;SDS011;15376;48.540;9.268;2022-09-02T08:42:52;2.80;;;2.00;;
2320;SDS011;15376;48.540;9.268;2022-09-02T08:48:05;2.57;;;1.83;;
2320;SDS011;15376;48.540;9.268;2022-09-02T08:50:38;2.13;;;1.90;;
2320;SDS011;15376;48.540;9.268;2022-09-02T08:53:15;2.63;;;1.90;;
2320;SDS011;15376;48.540;9.268;2022-09-02T08:55:54;2.53;;;2.33;;
2320;SDS011;15376;48.540;9.268;2022-09-02T08:58:23;2.10;;;1.80;;
2320;SDS011;15376;48.540;9.268;2022-09-02T09:09:42;3.13;;;2.20;;
2320;SDS011;15376;48.540;9.268;2022-09-02T09:12:36;2.17;;;2.00;;
2320;SDS011;15376;48.540;9.268;2022-09-02T09:17:58;2.47;;;1.87;;
2320;SDS011;15376;48.540;9.268;2022-09-02T09:20:28;2.10;;;2.00;;
2320;SDS011;15376;48.540;9.268;2022-09-02T09:22:59;3.73;;;2.30;;
2320;SDS011;15376;48.540;9.268;2022-09-02T09:25:27;2.83;;;2.20;;
2320;SDS011;15376;48.540;9.268;2022-09-02T09:27:57;2.37;;;2.10;;
2320;SDS011;15376;48.540;9.268;2022-09-02T09:30:23;3.77;;;2.00;;
2320;SDS011;15376;48.540;9.268;2022-09-02T09:32:51;2.80;;;2.37;;
2320;SDS011;15376;48.540;9.268;2022-09-02T09:35:21;2.90;;;2.23;;
2320;SDS011;15376;48.540;9.268;2022-09-02T09:37:48;5.20;;;2.13;;
2320;SDS011;15376;48.540;9.268;2022-09-02T09:42:54;3.80;;;2.10;;
2320;SDS011;15376;48.540;9.268;2022-09-02T09:45:27;2.13;;;2.03;;
2320;SDS011;15376;48.540;9.268;2022-09-02T09:53:19;2.20;;;2.00;;
2320;SDS011;15376;48.540;9.268;2022-09-02T09:55:53;3.37;;;2.30;;
2320;SDS011;15376;48.540;9.268;2022-09-02T09:58:21;2.10;;;1.80;;
2320;SDS011;15376;48.540;9.268;2022-09-02T10:00:51;2.60;;;2.30;;
2320;SDS011;15376;48.540;9.268;2022-09-02T10:03:22;2.00;;;1.90;;
2320;SDS011;15376;48.540;9.268;2022-09-02T10:05:57;1.80;;;1.70;;
2320;SDS011;15376;48.540;9.268;2022-09-02T10:08:48;1.80;;;1.70;;
2320;SDS011;15376;48.540;9.268;2022-09-02T10:12:05;3.23;;;1.90;;
2320;SDS011;15376;48.540;9.268;2022-09-02T10:14:34;2.23;;;2.03;;
2320;SDS011;15376;48.540;9.268;2022-09-02T10:19:33;1.80;;;1.70;;
2320;SDS011;15376;48.540;9.268;2022-09-02T10:33:50;2.23;;;2.00;;
2320;SDS011;15376;48.540;9.268;2022-09-02T10:36:31;2.10;;;1.90;;
2320;SDS011;15376;48.540;9.268;2022-09-02T10:39:07;2.00;;;1.80;;
2320;SDS011;15376;48.540;9.268;2022-09-02T10:41:47;2.13;;;1.87;;
2320;SDS011;15376;48.540;9.268;2022-09-02T10:57:04;2.40;;;2.20;;
2320;SDS011;15376;48.540;9.268;2022-09-02T10:59:39;2.67;;;2.47;;
2320;SDS011;15376;48.540;9.268;2022-09-02T11:02:22;2.20;;;2.00;;
2320;SDS011;15376;48.540;9.268;2022-09-02T11:04:59;2.37;;;2.17;;
2320;SDS011;15376;48.540;9.268;2022-09-02T11:10:22;2.33;;;2.10;;
2320;SDS011;15376;48.540;9.268;2022-09-02T11:16:06;2.67;;;2.10;;
2320;SDS011;15376;48.540;9.268;2022-09-02T11:21:25;3.13;;;2.80;;
2320;SDS011;15376;48.540;9.268;2022-09-02T11:24:29;2.53;;;2.30;;
2320;SDS011;15376;48.540;9.268;2022-09-02T11:29:31;2.80;;;2.60;;
2320;SDS011;15376;48.540;9.268;2022-09-02T11:32:22;2.37;;;2.17;;
2320;SDS011;15376;48.540;9.268;2022-09-02T11:34:55;2.10;;;2.00;;
2320;SDS011;15376;48.540;9.268;2022-09-02T11:37:31;2.43;;;2.23;;
2320;SDS011;15376;48.540;9.268;2022-09-02T11:40:08;2.60;;;2.40;;
2320;SDS011;15376;48.540;9.268;2022-09-02T11:46:03;4.23;;;2.73;;
2320;SDS011;15376;48.540;9.268;2022-09-02T11:53:56;2.37;;;2.23;;
2320;SDS011;15376;48.540;9.268;2022-09-02T11:56:27;2.20;;;2.00;;
2320;SDS011;15376;48.540;9.268;2022-09-02T11:58:59;3.90;;;2.70;;
2320;SDS011;15376;48.540;9.268;2022-09-02T12:06:26;3.00;;;2.00;;
2320;SDS011;15376;48.540;9.268;2022-09-02T12:14:06;2.80;;;2.60;;
2320;SDS011;15376;48.540;9.268;2022-09-02T12:16:42;2.60;;;2.40;;
2320;SDS011;15376;48.540;9.268;2022-09-02T12:21:35;2.80;;;2.60;;
2320;SDS011;15376;48.540;9.268;2022-09-02T12:24:20;3.60;;;2.53;;
2320;SDS011;15376;48.540;9.268;2022-09-02T12:36:48;2.70;;;2.50;;
2320;SDS011;15376;48.540;9.268;2022-09-02T12:44:35;3.03;;;2.20;;
2320;SDS011;15376;48.540;9.268;2022-09-02T12:55:12;2.80;;;2.60;;
2320;SDS011;15376;48.540;9.268;2022-09-02T12:57:44;2.67;;;2.47;;
2320;SDS011;15376;48.540;9.268;2022-09-02T13:00:12;2.73;;;2.40;;
2320;SDS011;15376;48.540;9.268;2022-09-02T13:05:35;2.83;;;2.43;;
2320;SDS011;15376;48.540;9.268;2022-09-02T13:08:28;2.67;;;2.47;;
2320;SDS011;15376;48.540;9.268;2022-09-02T13:19:11;3.43;;;2.23;;
2320;SDS011;15376;48.540;9.268;2022-09-02T13:33:41;4.60;;;2.40;;
2320;SDS011;15376;48.540;9.268;2022-09-02T13:36:07;3.43;;;2.53;;
2320;SDS011;15376;48.540;9.268;2022-09-02T13:38:33;2.20;;;2.00;;
2320;SDS011;15376;48.540;9.268;2022-09-02T13:40:59;4.73;;;2.73;;
2320;SDS011;15376;48.540;9.268;2022-09-02T13:43:26;3.50;;;2.80;;
2320;SDS011;15376;48.540;9.268;2022-09-02T13:45:52;2.60;;;2.20;;
2320;SDS011;15376;48.540;9.268;2022-09-02T13:48:27;2.67;;;2.47;;
2320;SDS011;15376;48.540;9.268;2022-09-02T13:50:55;2.70;;;2.50;;
2320;SDS011;15376;48.540;9.268;2022-09-02T13:53:35;2.00;;;1.90;;
2320;SDS011;15376;48.540;9.268;2022-09-02T13:56:04;3.90;;;2.57;;
2320;SDS011;15376;48.540;9.268;2022-09-02T13:58:33;2.83;;;2.53;;
2320;SDS011;15376;48.540;9.268;2022-09-02T14:01:19;5.10;;;2.13;;
2320;SDS011;15376;48.540;9.268;2022-09-02T14:03:47;2.73;;;2.53;;
2320;SDS011;15376;48.540;9.268;2022-09-02T14:06:20;2.57;;;2.37;;
2320;SDS011;15376;48.540;9.268;2022-09-02T14:08:49;3.40;;;2.23;;
2320;SDS011;15376;48.540;9.268;2022-09-02T14:11:17;2.50;;;2.07;;
2320;SDS011;15376;48.540;9.268;2022-09-02T14:13:45;2.40;;;2.23;;
2320;SDS011;15376;48.540;9.268;2022-09-02T14:19:04;2.40;;;2.20;;
2320;SDS011;15376;48.540;9.268;2022-09-02T14:21:53;9.30;;;2.23;;
2320;SDS011;15376;48.540;9.268;2022-09-02T14:24:23;2.23;;;2.03;;
2320;SDS011;15376;48.540;9.268;2022-09-02T14:27:01;2.87;;;2.33;;
2320;SDS011;15376;48.540;9.268;2022-09-02T14:29:27;2.30;;;2.00;;
2320;SDS011;15376;48.540;9.268;2022-09-02T14:32:08;3.40;;;2.00;;
2320;SDS011;15376;48.540;9.268;2022-09-02T14:34:40;2.73;;;2.30;;
2320;SDS011;15376;48.540;9.268;2022-09-02T14:37:21;1.80;;;1.70;;
2320;SDS011;15376;48.540;9.268;2022-09-02T14:40:08;3.37;;;2.27;;
2320;SDS011;15376;48.540;9.268;2022-09-02T14:42:48;2.37;;;1.90;;
2320;SDS011;15376;48.540;9.268;2022-09-02T14:45:26;4.77;;;2.30;;
2320;SDS011;15376;48.540;9.268;2022-09-02T14:47:53;2.50;;;2.30;;
2320;SDS011;15376;48.540;9.268;2022-09-02T14:50:21;2.80;;;2.50;;
2320;SDS011;15376;48.540;9.268;2022-09-02T14:52:51;2.00;;;1.80;;
2320;SDS011;15376;48.540;9.268;2022-09-02T14:58:20;2.90;;;2.57;;
2320;SDS011;15376;48.540;9.268;2022-09-02T15:00:47;2.47;;;2.27;;
2320;SDS011;15376;48.540;9.268;2022-09-02T15:03:20;2.50;;;2.30;;
2320;SDS011;15376;48.540;9.268;2022-09-02T15:05:46;2.40;;;2.20;;
2320;SDS011;15376;48.540;9.268;2022-09-02T15:08:12;2.20;;;2.10;;
2320;SDS011;15376;48.540;9.268;2022-09-02T15:10:38;2.50;;;2.20;;
2320;SDS011;15376;48.540;9.268;2022-09-02T15:13:05;2.30;;;2.10;;
2320;SDS011;15376;48.540;9.268;2022-09-02T15:15:36;2.23;;;2.00;;
2320;SDS011;15376;48.540;9.268;2022-09-02T15:18:02;2.13;;;1.93;;
2320;SDS011;15376;48.540;9.268;2022-09-02T15:20:28;1.77;;;1.67;;
2320;SDS011;15376;48.540;9.268;2022-09-02T15:22:55;2.60;;;2.40;;
2320;SDS011;15376;48.540;9.268;2022-09-02T15:25:20;3.33;;;2.00;;
2320;SDS011;15376;48.540;9.268;2022-09-02T15:27:45;2.17;;;1.80;;
2320;SDS011;15376;48.540;9.268;2022-09-02T15:30:11;2.67;;;2.47;;
2320;SDS011;15376;48.540;9.268;2022-09-02T15:32:36;2.10;;;1.90;;
2320;SDS011;15376;48.540;9.268;2022-09-02T15:35:02;2.70;;;2.30;;
2320;SDS011;15376;48.540;9.268;2022-09-02T15:37:28;1.97;;;1.87;;
2320;SDS011;15376;48.540;9.268;2022-09-02T15:39:54;3.87;;;2.07;;
2320;SDS011;15376;48.540;9.268;2022-09-02T15:42:20;3.60;;;2.20;;
2320;SDS011;15376;48.540;9.268;2022-09-02T15:44:46;2.67;;;2.20;;
2320;SDS011;15376;48.540;9.268;2022-09-02T15:47:11;2.83;;;2.63;;
2320;SDS011;15376;48.540;9.268;2022-09-02T15:49:37;2.60;;;2.20;;
2320;SDS011;15376;48.540;9.268;2022-09-02T15:52:02;2.60;;;2.40;;
2320;SDS011;15376;48.540;9.268;2022-09-02T15:54:28;2.27;;;2.13;;
2320;SDS011;15376;48.540;9.268;2022-09-02T15:56:56;2.60;;;2.07;;
2320;SDS011;15376;48.540;9.268;2022-09-02T15:59:22;1.80;;;1.70;;
2320;SDS011;15376;48.540;9.268;2022-09-02T16:01:50;2.50;;;2.30;;
2320;SDS011;15376;48.540;9.268;2022-09-02T16:04:18;2.80;;;2.10;;
2320;SDS011;15376;48.540;9.268;2022-09-02T16:06:45;2.27;;;2.07;;
2320;SDS011;15376;48.540;9.268;2022-09-02T16:09:15;2.43;;;2.17;;
2320;SDS011;15376;48.540;9.268;2022-09-02T16:11:43;2.67;;;2.47;;
2320;SDS011;15376;48.540;9.268;2022-09-02T16:14:13;3.23;;;2.53;;
2320;SDS011;15376;48.540;9.268;2022-09-02T16:16:39;3.13;;;2.40;;
2320;SDS011;15376;48.540;9.268;2022-09-02T16:19:05;3.07;;;1.90;;
2320;SDS011;15376;48.540;9.268;2022-09-02T16:21:31;2.40;;;2.20;;
2320;SDS011;15376;48.540;9.268;2022-09-02T16:23:57;3.33;;;3.10;;
2320;SDS011;15376;48.540;9.268;2022-09-02T16:26:32;3.00;;;2.67;;
2320;SDS011;15376;48.540;9.268;2022-09-02T16:29:03;2.90;;;2.37;;
2320;SDS011;15376;48.540;9.268;2022-09-02T16:31:31;2.50;;;2.30;;
2320;SDS011;15376;48.540;9.268;2022-09-02T16:36:31;1.93;;;1.83;;
2320;SDS011;15376;48.540;9.268;2022-09-02T16:38:58;2.90;;;2.07;;
2320;SDS011;15376;48.540;9.268;2022-09-02T16:41:29;2.60;;;2.40;;
2320;SDS011;15376;48.540;9.268;2022-09-02T16:43:58;2.10;;;1.90;;
2320;SDS011;15376;48.540;9.268;2022-09-02T16:46:26;4.23;;;2.23;;
2320;SDS011;15376;48.540;9.268;2022-09-02T16:48:52;3.00;;;2.07;;
2320;SDS011;15376;48.540;9.268;2022-09-02T16:51:19;1.90;;;1.80;;
2320;SDS011;15376;48.540;9.268;2022-09-02T16:53:45;2.63;;;2.43;;
2320;SDS011;15376;48.540;9.268;2022-09-02T16:56:11;2.07;;;1.80;;
2320;SDS011;15376;48.540;9.268;2022-09-02T16:58:41;2.47;;;2.20;;
2320;SDS011;15376;48.540;9.268;2022-09-02T17:01:08;2.43;;;2.23;;
2320;SDS011;15376;48.540;9.268;2022-09-02T17:03:36;2.50;;;2.30;;
2320;SDS011;15376;48.540;9.268;2022-09-02T17:06:02;2.50;;;2.00;;
2320;SDS011;15376;48.540;9.268;2022-09-02T17:08:27;1.90;;;1.80;;
2320;SDS011;15376;48.540;9.268;2022-09-02T17:11:38;2.53;;;2.33;;
2320;SDS011;15376;48.540;9.268;2022-09-02T17:13:42;3.77;;;2.03;;
2320;SDS011;15376;48.540;9.268;2022-09-02T17:16:08;2.30;;;2.10;;
2320;SDS011;15376;48.540;9.268;2022-09-02T17:18:33;3.20;;;2.23;;
2320;SDS011;15376;48.540;9.268;2022-09-02T17:21:10;6.60;;;2.40;;
2320;SDS011;15376;48.540;9.268;2022-09-02T17:23:39;2.40;;;2.20;;
2320;SDS011;15376;48.540;9.268;2022-09-02T17:26:04;2.50;;;2.30;;
2320;SDS011;15376;48.540;9.268;2022-09-02T17:28:30;3.07;;;2.77;;
2320;SDS011;15376;48.540;9.268;2022-09-02T17:30:55;5.93;;;2.90;;